sensor_id;sensor_type;location;lat;lon;timestamp;temperature;humidity
45311;SHT31;68264;51.540;5.854;2023-03-22T00:06:44;10.7;79.3
45311;SHT31;68264;51.540;5.854;2023-03-22T00:21:34;10.7;79.5
45311;SHT31;68264;51.540;5.854;2023-03-22T00:36:33;10.6;80.3
45311;SHT31;68264;51.540;5.854;2023-03-22T00:50:51;10.4;81.7
45311;SHT31;68264;51.540;5.854;2023-03-22T01:05:10;10.3;82.3
45311;SHT31;68264;51.540;5.854;2023-03-22T01:18:59;10.2;83.9
45311;SHT31;68264;51.540;5.854;2023-03-22T01:33:49;10.3;84.4
45311;SHT31;68264;51.540;5.854;2023-03-22T01:50:21;10.4;84.3
45311;SHT31;68264;51.540;5.854;2023-03-22T02:06:20;10.5;84.1
45311;SHT31;68264;51.540;5.854;2023-03-22T02:20:39;10.5;83.9
45311;SHT31;68264;51.540;5.854;2023-03-22T02:36:01;10.6;83.5
45311;SHT31;68264;51.540;5.854;2023-03-22T02:52:00;10.6;83.4
45311;SHT31;68264;51.540;5.854;2023-03-22T03:06:19;10.6;83.2
45311;SHT31;68264;51.540;5.854;2023-03-22T03:20:37;10.6;83.0
45311;SHT31;68264;51.540;5.854;2023-03-22T03:35:25;10.5;82.8
45311;SHT31;68264;51.540;5.854;2023-03-22T03:49:44;10.4;82.7
45311;SHT31;68264;51.540;5.854;2023-03-22T04:03:32;10.4;82.6
45311;SHT31;68264;51.540;5.854;2023-03-22T04:19:58;10.5;82.1
45311;SHT31;68264;51.540;5.854;2023-03-22T04:36:29;10.3;82.2
45311;SHT31;68264;51.540;5.854;2023-03-22T04:50:17;10.3;82.2
45311;SHT31;68264;51.540;5.854;2023-03-22T05:04:06;10.3;81.7
45311;SHT31;68264;51.540;5.854;2023-03-22T05:17:55;10.3;81.3
45311;SHT31;68264;51.540;5.854;2023-03-22T05:31:43;10.3;80.5
45311;SHT31;68264;51.540;5.854;2023-03-22T05:45:32;10.4;79.9
45311;SHT31;68264;51.540;5.854;2023-03-22T06:00:22;10.5;79.8
45311;SHT31;68264;51.540;5.854;2023-03-22T06:15:22;10.5;79.9
45311;SHT31;68264;51.540;5.854;2023-03-22T06:29:49;10.5;80.2
45311;SHT31;68264;51.540;5.854;2023-03-22T06:44:08;10.7;79.7
45311;SHT31;68264;51.540;5.854;2023-03-22T06:58:58;10.8;79.0
45311;SHT31;68264;51.540;5.854;2023-03-22T07:14:59;10.9;78.8
45311;SHT31;68264;51.540;5.854;2023-03-22T07:29:58;11.1;78.5
45311;SHT31;68264;51.540;5.854;2023-03-22T07:43:57;11.1;77.6
45311;SHT31;68264;51.540;5.854;2023-03-22T07:57:46;11.3;77.1
45311;SHT31;68264;51.540;5.854;2023-03-22T08:13:40;11.4;75.8
45311;SHT31;68264;51.540;5.854;2023-03-22T08:30:09;11.6;75.5
45311;SHT31;68264;51.540;5.854;2023-03-22T08:44:28;11.7;74.6
45311;SHT31;68264;51.540;5.854;2023-03-22T08:58:27;12.3;71.5
45311;SHT31;68264;51.540;5.854;2023-03-22T09:12:45;12.5;70.0
45311;SHT31;68264;51.540;5.854;2023-03-22T09:27:04;12.5;69.6
45311;SHT31;68264;51.540;5.854;2023-03-22T09:40:52;12.7;69.6
45311;SHT31;68264;51.540;5.854;2023-03-22T09:54:41;12.6;68.7
45311;SHT31;68264;51.540;5.854;2023-03-22T10:08:30;12.6;68.6
45311;SHT31;68264;51.540;5.854;2023-03-22T10:22:48;12.6;69.3
45311;SHT31;68264;51.540;5.854;2023-03-22T10:37:07;12.5;69.6
45311;SHT31;68264;51.540;5.854;2023-03-22T10:51:35;12.4;69.5
45311;SHT31;68264;51.540;5.854;2023-03-22T11:07:27;11.9;73.0
45311;SHT31;68264;51.540;5.854;2023-03-22T11:22:56;12.2;72.7
45311;SHT31;68264;51.540;5.854;2023-03-22T11:37:14;12.2;73.9
45311;SHT31;68264;51.540;5.854;2023-03-22T11:51:33;12.1;74.0
45311;SHT31;68264;51.540;5.854;2023-03-22T12:05:22;11.9;75.5
45311;SHT31;68264;51.540;5.854;2023-03-22T12:19:50;12.0;76.0
45311;SHT31;68264;51.540;5.854;2023-03-22T12:34:09;12.1;76.0
45311;SHT31;68264;51.540;5.854;2023-03-22T12:48:08;12.2;74.6
45311;SHT31;68264;51.540;5.854;2023-03-22T13:01:56;12.4;73.4
45311;SHT31;68264;51.540;5.854;2023-03-22T13:15:45;12.5;73.7
45311;SHT31;68264;51.540;5.854;2023-03-22T13:29:34;12.5;72.8
45311;SHT31;68264;51.540;5.854;2023-03-22T13:43:22;12.6;73.0
45311;SHT31;68264;51.540;5.854;2023-03-22T13:58:12;12.7;72.6
45311;SHT31;68264;51.540;5.854;2023-03-22T14:13:41;12.8;72.9
45311;SHT31;68264;51.540;5.854;2023-03-22T14:28:00;12.8;73.2
45311;SHT31;68264;51.540;5.854;2023-03-22T14:41:49;12.7;73.9
45311;SHT31;68264;51.540;5.854;2023-03-22T14:55:37;12.7;74.6
45311;SHT31;68264;51.540;5.854;2023-03-22T15:09:26;12.6;75.9
45311;SHT31;68264;51.540;5.854;2023-03-22T15:23:15;12.5;76.7
45311;SHT31;68264;51.540;5.854;2023-03-22T15:37:03;12.5;76.4
45311;SHT31;68264;51.540;5.854;2023-03-22T15:51:21;12.6;76.7
45311;SHT31;68264;51.540;5.854;2023-03-22T16:05:40;12.3;79.2
45311;SHT31;68264;51.540;5.854;2023-03-22T16:19:29;11.8;83.2
45311;SHT31;68264;51.540;5.854;2023-03-22T16:33:18;11.4;86.9
45311;SHT31;68264;51.540;5.854;2023-03-22T16:47:16;11.2;88.7
45311;SHT31;68264;51.540;5.854;2023-03-22T17:02:38;11.2;90.0
45311;SHT31;68264;51.540;5.854;2023-03-22T17:18:08;11.2;89.9
45311;SHT31;68264;51.540;5.854;2023-03-22T17:32:26;11.2;89.5
45311;SHT31;68264;51.540;5.854;2023-03-22T17:46:45;11.4;87.4
45311;SHT31;68264;51.540;5.854;2023-03-22T18:00:33;11.5;85.8
45311;SHT31;68264;51.540;5.854;2023-03-22T18:14:22;11.5;86.1
45311;SHT31;68264;51.540;5.854;2023-03-22T18:28:21;11.6;85.9
45311;SHT31;68264;51.540;5.854;2023-03-22T18:43:21;11.5;86.3
45311;SHT31;68264;51.540;5.854;2023-03-22T18:58:20;11.5;86.5
45311;SHT31;68264;51.540;5.854;2023-03-22T19:12:09;11.4;87.8
45311;SHT31;68264;51.540;5.854;2023-03-22T19:25:58;11.2;89.7
45311;SHT31;68264;51.540;5.854;2023-03-22T19:40:16;11.2;90.6
45311;SHT31;68264;51.540;5.854;2023-03-22T19:55:36;11.2;91.0
45311;SHT31;68264;51.540;5.854;2023-03-22T20:11:37;11.2;91.1
45311;SHT31;68264;51.540;5.854;2023-03-22T20:27:05;11.2;90.5
45311;SHT31;68264;51.540;5.854;2023-03-22T20:41:24;11.3;90.3
45311;SHT31;68264;51.540;5.854;2023-03-22T20:55:23;11.2;90.7
45311;SHT31;68264;51.540;5.854;2023-03-22T21:11:27;11.3;90.3
45311;SHT31;68264;51.540;5.854;2023-03-22T21:27:27;11.3;90.1
45311;SHT31;68264;51.540;5.854;2023-03-22T21:41:16;11.4;89.5
45311;SHT31;68264;51.540;5.854;2023-03-22T21:55:04;11.5;88.4
45311;SHT31;68264;51.540;5.854;2023-03-22T22:09:22;11.7;86.9
45311;SHT31;68264;51.540;5.854;2023-03-22T22:23:41;12.0;84.9
45311;SHT31;68264;51.540;5.854;2023-03-22T22:37:40;12.1;83.5
45311;SHT31;68264;51.540;5.854;2023-03-22T22:51:29;12.2;82.4
45311;SHT31;68264;51.540;5.854;2023-03-22T23:05:47;12.3;81.5
45311;SHT31;68264;51.540;5.854;2023-03-22T23:20:06;12.4;80.6
45311;SHT31;68264;51.540;5.854;2023-03-22T23:34:24;12.5;79.9
45311;SHT31;68264;51.540;5.854;2023-03-22T23:49:44;12.6;79.4
